createdAt,value
2023-03-20T00:00:30.706Z,143.00
2023-03-20T00:01:30.706Z,137.25
2023-03-20T00:02:30.769Z,142.70
2023-03-20T00:03:30.751Z,138.62
2023-03-20T00:04:30.801Z,144.91
2023-03-20T00:05:30.819Z,140.73
2023-03-20T00:06:30.773Z,140.31
2023-03-20T00:07:30.825Z,146.93
2023-03-20T00:08:30.785Z,145.67
2023-03-20T00:09:30.812Z,140.31
2023-03-20T00:10:30.818Z,140.58
2023-03-20T00:11:31.000Z,140.84
2023-03-20T00:12:30.863Z,141.04
2023-03-20T00:13:30.877Z,142.56
2023-03-20T00:14:30.902Z,148.67
2023-03-20T00:15:30.924Z,145.17
2023-03-20T00:16:31.021Z,145.13
2023-03-20T00:17:30.932Z,148.58
2023-03-20T00:18:30.967Z,142.39
2023-03-20T00:19:30.961Z,146.32
2023-03-20T00:20:31.759Z,141.82
2023-03-20T00:21:31.004Z,139.91
2023-03-20T00:22:31.008Z,147.19
2023-03-20T00:23:31.038Z,147.31
2023-03-20T00:24:31.034Z,142.12
2023-03-20T00:25:31.083Z,143.64
2023-03-20T00:26:31.087Z,137.41
2023-03-20T00:27:31.125Z,140.19
2023-03-20T00:28:31.115Z,148.01
2023-03-20T00:29:31.205Z,147.56
2023-03-20T00:30:31.164Z,147.03
2023-03-20T00:31:31.198Z,147.37
2023-03-20T00:32:31.155Z,148.06
2023-03-20T00:33:31.198Z,145.69
2023-03-20T00:34:31.187Z,147.23
2023-03-20T00:35:31.248Z,147.28
2023-03-20T00:36:31.243Z,149.20
2023-03-20T00:37:31.232Z,147.38
2023-03-20T00:38:31.234Z,147.34
2023-03-20T00:39:31.237Z,145.43
2023-03-20T00:40:31.273Z,143.36
2023-03-20T00:41:31.302Z,154.74
2023-03-20T00:42:31.284Z,146.00
2023-03-20T00:43:31.382Z,146.06
2023-03-20T00:44:31.313Z,147.38
2023-03-20T00:45:31.342Z,148.03
2023-03-20T00:46:31.428Z,149.63
2023-03-20T00:47:31.357Z,143.02
2023-03-20T00:48:31.390Z,149.94
2023-03-20T00:49:31.388Z,149.06
2023-03-20T00:50:31.401Z,149.87
2023-03-20T00:51:31.424Z,149.52
2023-03-20T00:52:31.418Z,151.11
2023-03-20T00:53:31.433Z,148.32
2023-03-20T00:54:31.433Z,149.97
2023-03-20T00:55:31.455Z,150.73
2023-03-20T00:56:31.467Z,150.92
2023-03-20T00:57:31.477Z,150.96
2023-03-20T00:58:31.475Z,151.22
2023-03-20T00:59:31.507Z,146.24
2023-03-20T01:00:31.550Z,152.78
2023-03-20T01:01:31.545Z,142.54
2023-03-20T01:02:31.676Z,148.16
2023-03-20T01:03:31.552Z,148.42
2023-03-20T01:04:31.573Z,151.93
2023-03-20T01:05:31.584Z,150.11
2023-03-20T01:06:31.616Z,150.48
2023-03-20T01:07:31.626Z,153.47
2023-03-20T01:08:31.621Z,145.00
2023-03-20T01:09:31.639Z,145.95
2023-03-20T01:10:31.654Z,147.35
2023-03-20T01:11:31.671Z,152.64
2023-03-20T01:12:31.690Z,150.90
2023-03-20T01:13:31.713Z,152.13
2023-03-20T01:14:31.707Z,154.58
2023-03-20T01:15:31.741Z,148.89
2023-03-20T01:16:31.761Z,149.37
2023-03-20T01:17:31.770Z,149.10
2023-03-20T01:18:31.775Z,151.75
2023-03-20T01:19:31.817Z,154.58
2023-03-20T01:20:31.812Z,157.08
2023-03-20T01:21:31.834Z,156.87
2023-03-20T01:22:31.870Z,155.35
2023-03-20T01:23:31.878Z,154.15
2023-03-20T01:24:31.891Z,155.20
2023-03-20T01:25:31.907Z,155.13
2023-03-20T01:26:31.902Z,155.76
2023-03-20T01:27:31.922Z,156.03
2023-03-20T01:28:31.937Z,150.32
2023-03-20T01:29:31.963Z,147.64
2023-03-20T01:30:31.956Z,156.74
2023-03-20T01:31:32.012Z,150.73
2023-03-20T01:32:31.997Z,151.75
2023-03-20T01:33:31.996Z,151.58
2023-03-20T01:34:32.016Z,151.27
2023-03-20T01:35:32.018Z,155.97
2023-03-20T01:36:32.034Z,156.37
2023-03-20T01:37:32.054Z,158.11
2023-03-20T01:38:32.059Z,151.34
2023-03-20T01:39:32.097Z,152.13
2023-03-20T01:40:32.097Z,156.65
2023-03-20T01:41:32.106Z,155.80
2023-03-20T01:42:32.120Z,158.63
2023-03-20T01:43:32.136Z,156.14
2023-03-20T01:44:32.183Z,153.62
2023-03-20T01:45:32.180Z,153.24
2023-03-20T01:46:32.293Z,154.41
2023-03-20T01:47:32.235Z,160.83
2023-03-20T01:48:32.230Z,155.39
2023-03-20T01:49:32.260Z,152.06
2023-03-20T01:50:33.127Z,158.47
2023-03-20T01:51:32.269Z,153.95
2023-03-20T01:52:32.308Z,159.25
2023-03-20T01:53:32.270Z,157.30
2023-03-20T01:54:32.307Z,154.78
2023-03-20T01:55:32.309Z,155.45
2023-03-20T01:56:32.310Z,156.18
2023-03-20T01:57:32.365Z,157.94
2023-03-20T01:58:32.319Z,156.61
2023-03-20T01:59:32.356Z,160.25
2023-03-20T02:00:32.364Z,152.03
2023-03-20T02:01:32.426Z,152.48
2023-03-20T02:02:32.379Z,163.94
2023-03-20T02:03:32.394Z,155.49
2023-03-20T02:04:32.405Z,155.65
2023-03-20T02:05:32.416Z,157.11
2023-03-20T02:06:32.419Z,157.51
2023-03-20T02:07:36.548Z,159.07
2023-03-20T02:08:32.441Z,155.72
2023-03-20T02:09:32.472Z,156.38
2023-03-20T02:10:32.468Z,157.52
2023-03-20T02:11:32.493Z,158.04
2023-03-20T02:12:32.509Z,157.04
2023-03-20T02:13:32.512Z,157.29
2023-03-20T02:14:32.541Z,160.55
2023-03-20T02:15:32.700Z,159.55
2023-03-20T02:16:32.570Z,158.74
2023-03-20T02:17:32.585Z,162.45
2023-03-20T02:18:32.592Z,164.04
2023-03-20T02:19:32.610Z,160.37
2023-03-20T02:20:32.625Z,162.98
2023-03-20T02:21:32.627Z,160.07
2023-03-20T02:22:32.659Z,163.41
2023-03-20T02:23:32.667Z,156.50
2023-03-20T02:24:32.663Z,162.16
2023-03-20T02:25:32.685Z,159.24
2023-03-20T02:26:32.689Z,158.63
2023-03-20T02:27:32.707Z,160.81
2023-03-20T02:28:32.730Z,163.13
2023-03-20T02:29:32.768Z,159.25
2023-03-20T02:30:32.754Z,159.96
2023-03-20T02:31:32.770Z,161.35
2023-03-20T02:32:32.818Z,156.72
2023-03-20T02:33:32.783Z,165.06
2023-03-20T02:34:32.806Z,160.03
2023-03-20T02:35:32.811Z,165.97
2023-03-20T02:36:32.822Z,157.60
2023-03-20T02:37:32.814Z,164.49
2023-03-20T02:38:32.855Z,162.49
2023-03-20T02:39:32.855Z,160.80
2023-03-20T02:40:32.858Z,159.88
2023-03-20T02:41:32.934Z,160.39
2023-03-20T02:42:33.910Z,166.50
2023-03-20T02:43:32.913Z,157.04
2023-03-20T02:44:32.927Z,161.83
2023-03-20T02:45:33.035Z,164.13
2023-03-20T02:46:32.955Z,163.29
2023-03-20T02:47:32.959Z,163.65
2023-03-20T02:48:32.987Z,164.65
2023-03-20T02:49:33.009Z,162.48
2023-03-20T02:50:33.008Z,160.20
2023-03-20T02:51:33.008Z,165.84
2023-03-20T02:52:33.038Z,166.97
2023-03-20T02:53:33.048Z,161.12
2023-03-20T02:54:33.055Z,161.33
2023-03-20T02:55:33.301Z,161.73
2023-03-20T02:56:33.090Z,161.95
2023-03-20T02:57:33.091Z,163.25
2023-03-20T02:58:33.108Z,160.88
2023-03-20T02:59:33.118Z,166.16
2023-03-20T03:01:33.282Z,162.62
2023-03-20T03:02:33.175Z,165.84
2023-03-20T03:03:33.181Z,160.40
2023-03-20T03:04:33.196Z,164.26
2023-03-20T03:05:33.320Z,167.01
2023-03-20T03:06:33.284Z,164.38
2023-03-20T03:07:33.278Z,164.64
2023-03-20T03:08:33.259Z,165.71
2023-03-20T03:09:33.268Z,167.78
2023-03-20T03:25:33.761Z,165.77
2023-03-20T07:54:37.059Z,248.37
2023-03-20T07:55:37.519Z,249.52
2023-03-20T07:56:37.126Z,247.50
2023-03-20T07:57:37.084Z,248.56
2023-03-20T07:58:37.212Z,245.77
2023-03-20T07:59:37.102Z,249.26
2023-03-20T08:00:37.291Z,249.55
2023-03-20T08:01:37.450Z,250.00
2023-03-20T08:02:37.191Z,250.41
2023-03-20T08:03:37.221Z,249.92
2023-03-20T08:04:37.127Z,246.62
2023-03-20T08:05:37.465Z,245.18
2023-03-20T08:06:37.149Z,248.18
2023-03-20T08:07:37.210Z,249.27
2023-03-20T08:08:37.142Z,249.72
2023-03-20T08:09:37.115Z,249.84
2023-03-20T08:10:37.121Z,258.03
2023-03-20T08:11:37.190Z,244.58
2023-03-20T08:12:37.791Z,240.20
2023-03-20T08:13:37.133Z,240.10
2023-03-20T08:14:37.128Z,241.60
2023-03-20T08:15:37.453Z,241.52
2023-03-20T08:16:37.265Z,243.27
2023-03-20T08:17:37.158Z,243.29
2023-03-20T08:18:37.134Z,242.44
2023-03-20T08:19:37.128Z,242.14
2023-03-20T08:20:37.162Z,378.27
2023-03-20T08:21:37.138Z,347.82
2023-03-20T08:22:37.142Z,286.95
2023-03-20T08:23:37.140Z,259.74
2023-03-20T08:25:37.333Z,248.99
2023-03-20T08:26:37.124Z,246.90
2023-03-20T08:27:37.119Z,247.36
2023-03-20T08:28:46.960Z,249.55
2023-03-20T08:29:38.095Z,249.57
2023-03-20T08:30:37.100Z,247.11
2023-03-20T08:31:37.114Z,244.31
2023-03-20T08:32:37.105Z,244.96
2023-03-20T08:33:37.100Z,244.27
2023-03-20T08:34:37.065Z,248.49
2023-03-20T08:35:37.146Z,248.49
2023-03-20T08:36:37.112Z,249.68
2023-03-20T08:37:37.035Z,249.06
2023-03-20T08:38:37.038Z,245.90
2023-03-20T08:39:37.029Z,229.64
2023-03-20T08:40:37.026Z,218.29
2023-03-20T08:41:37.040Z,167.84
2023-03-20T08:42:37.038Z,133.65
2023-03-20T08:43:37.043Z,109.50
2023-03-20T08:44:37.073Z,94.03
2023-03-20T08:45:37.481Z,67.99
2023-03-20T08:46:37.171Z,46.83
2023-03-20T08:47:39.529Z,41.44
2023-03-20T08:48:37.176Z,28.99
2023-03-20T08:49:37.198Z,23.59
2023-03-20T08:50:37.227Z,25.30
2023-03-20T08:51:37.354Z,24.39
2023-03-20T08:52:37.574Z,25.00
2023-03-20T08:53:37.399Z,25.10
2023-03-20T08:54:38.296Z,26.45
2023-03-20T08:55:37.691Z,26.48
2023-03-20T08:56:37.430Z,23.17
2023-03-20T08:57:37.500Z,17.92
2023-03-20T08:58:37.506Z,16.76
2023-03-20T08:59:37.647Z,22.04
2023-03-20T09:00:37.645Z,26.40
2023-03-20T09:01:48.701Z,25.78
2023-03-20T09:02:38.814Z,25.86
2023-03-20T09:03:37.823Z,26.48
2023-03-20T09:04:38.297Z,26.13
2023-03-20T09:05:37.910Z,25.88
2023-03-20T09:06:37.832Z,21.34
2023-03-20T09:07:37.893Z,25.63
2023-03-20T09:08:37.939Z,28.87
2023-03-20T09:09:37.941Z,25.15
2023-03-20T09:10:37.995Z,27.44
2023-03-20T09:11:38.014Z,32.83
2023-03-20T09:12:38.047Z,46.19
2023-03-20T09:13:38.103Z,37.95
2023-03-20T09:14:38.135Z,40.43
2023-03-20T09:15:38.599Z,36.19
2023-03-20T09:16:38.258Z,41.31
2023-03-20T09:17:38.230Z,41.49
2023-03-20T09:18:38.250Z,44.98
2023-03-20T09:19:38.274Z,51.37
2023-03-20T09:20:38.642Z,53.14
2023-03-20T09:21:38.355Z,67.43
2023-03-20T09:22:38.460Z,63.22
2023-03-20T09:23:38.452Z,46.58
2023-03-20T09:24:38.463Z,43.28
2023-03-20T09:25:38.588Z,32.41
2023-03-20T09:26:38.549Z,27.23
2023-03-20T09:27:39.296Z,25.00
2023-03-20T09:28:38.658Z,25.00
2023-03-20T09:29:38.666Z,25.97
2023-03-20T09:30:39.197Z,29.07
2023-03-20T09:31:38.857Z,25.00
2023-03-20T09:32:38.858Z,32.17
2023-03-20T09:33:38.892Z,54.19
2023-03-20T09:34:38.913Z,62.48
2023-03-20T09:35:39.058Z,74.27
2023-03-20T09:36:38.975Z,88.03
2023-03-20T09:37:39.023Z,74.18
2023-03-20T09:38:39.096Z,71.62
2023-03-20T09:39:39.103Z,69.51
2023-03-20T09:40:39.129Z,59.99
2023-03-20T09:41:55.666Z,61.14
2023-03-20T09:43:39.271Z,57.82
2023-03-20T09:44:39.320Z,69.63
2023-03-20T09:47:39.450Z,81.65
2023-03-20T09:48:39.510Z,77.77
2023-03-20T09:49:39.525Z,61.71
2023-03-20T09:50:39.580Z,83.48
2023-03-20T09:52:39.649Z,84.02
2023-03-20T09:53:39.682Z,67.76
2023-03-20T09:54:53.244Z,51.28
2023-03-20T09:56:39.815Z,42.11
2023-03-20T09:57:39.851Z,46.73
2023-03-20T09:58:39.885Z,44.03
2023-03-20T11:26:41.921Z,191.58
2023-03-20T13:51:02.137Z,76.26
2023-03-20T13:52:00.416Z,73.39
2023-03-20T13:53:00.374Z,76.21
2023-03-20T13:54:00.329Z,76.42
2023-03-20T13:55:00.295Z,76.38
2023-03-20T13:56:00.249Z,75.08
2023-03-20T13:57:00.296Z,74.62
2023-03-20T13:58:00.183Z,71.02
2023-03-20T13:59:00.151Z,72.39
2023-03-20T14:00:00.151Z,72.72
2023-03-20T14:01:00.136Z,68.01
2023-03-20T14:02:00.114Z,66.78
2023-03-20T14:02:59.988Z,68.04
2023-03-20T14:03:59.983Z,66.23
2023-03-20T14:04:59.936Z,66.31
2023-03-20T14:05:59.912Z,65.34
2023-03-20T14:06:59.864Z,61.63
2023-03-20T14:07:59.828Z,63.74
2023-03-20T14:08:59.810Z,66.45
2023-03-20T14:09:59.761Z,64.74
2023-03-20T14:10:59.723Z,61.13
2023-03-20T14:11:59.695Z,60.29
2023-03-20T14:12:59.670Z,59.86
2023-03-20T14:14:00.145Z,59.10
2023-03-20T14:14:59.603Z,60.17
2023-03-20T14:15:59.557Z,59.23
2023-03-20T14:16:59.528Z,58.66
2023-03-20T14:17:59.468Z,57.62
2023-03-20T14:18:59.436Z,57.08
2023-03-20T14:19:59.398Z,57.15
2023-03-20T14:20:59.384Z,54.90
2023-03-20T14:21:59.382Z,56.26
2023-03-20T14:22:59.337Z,53.47
2023-03-20T14:23:59.251Z,53.25
2023-03-20T14:24:59.221Z,53.12
2023-03-20T14:25:59.191Z,50.52
2023-03-20T14:26:59.179Z,51.56
2023-03-20T14:27:59.105Z,49.85
2023-03-20T14:28:59.079Z,50.95
2023-03-20T14:29:59.041Z,51.28
2023-03-20T14:30:59.046Z,50.07
2023-03-20T14:31:59.621Z,48.10
2023-03-20T14:32:58.958Z,48.93
2023-03-20T14:33:58.907Z,50.45
2023-03-20T14:34:58.866Z,50.02
2023-03-20T14:35:58.841Z,47.92
2023-03-20T14:36:58.815Z,49.68
2023-03-20T14:37:58.756Z,46.44
2023-03-20T14:38:58.732Z,44.80
2023-03-20T14:39:58.706Z,45.60
2023-03-20T14:40:58.623Z,45.02
2023-03-20T14:41:58.601Z,45.22
2023-03-20T14:42:58.572Z,45.61
2023-03-20T14:43:58.541Z,45.65
2023-03-20T14:44:58.485Z,43.10
2023-03-20T14:45:59.147Z,43.22
2023-03-20T14:46:58.435Z,44.25
2023-03-20T14:47:58.362Z,44.50
2023-03-20T14:48:58.330Z,40.16
2023-03-20T14:49:58.300Z,40.31
2023-03-20T14:50:58.374Z,38.29
2023-03-20T14:51:58.207Z,38.64
2023-03-20T14:52:58.171Z,39.92
2023-03-20T14:53:58.644Z,39.02
2023-03-20T14:54:58.107Z,36.01
2023-03-20T14:55:58.054Z,34.37
2023-03-20T14:56:57.978Z,38.85
2023-03-20T14:57:58.170Z,37.27
2023-03-20T14:58:57.975Z,31.08
2023-03-20T14:59:57.867Z,36.01
2023-03-20T15:00:57.833Z,35.56
2023-03-20T15:01:57.772Z,32.46
2023-03-20T15:02:57.750Z,33.96
2023-03-20T15:03:57.872Z,34.23
2023-03-20T15:04:57.696Z,34.43
2023-03-20T15:05:57.610Z,35.20
2023-03-20T15:06:57.645Z,33.54
2023-03-20T15:07:57.546Z,30.99
2023-03-20T15:08:57.475Z,30.50
2023-03-20T15:09:57.450Z,28.18
2023-03-20T15:10:57.413Z,28.92
2023-03-20T15:11:58.159Z,27.46
2023-03-20T15:12:57.466Z,32.36
2023-03-20T15:13:57.294Z,29.25
2023-03-20T15:19:57.727Z,25.10
2023-03-20T19:36:02.840Z,32.87
2023-03-20T19:43:52.868Z,32.32
2023-03-20T19:55:48.016Z,30.79
2023-03-20T20:01:47.916Z,34.33
2023-03-20T20:02:47.898Z,34.97
2023-03-20T20:03:47.721Z,33.23
2023-03-20T20:04:47.695Z,27.17
2023-03-20T20:05:47.644Z,33.09
2023-03-20T20:06:47.754Z,25.27
2023-03-20T20:08:18.527Z,29.18
2023-03-20T20:09:47.517Z,30.12
2023-03-20T20:10:47.487Z,29.46
2023-03-20T20:11:47.447Z,35.30
2023-03-20T20:12:47.412Z,38.68
2023-03-20T20:14:05.180Z,31.71
2023-03-20T20:15:47.296Z,32.26
2023-03-20T20:16:47.323Z,30.28
2023-03-20T20:17:47.261Z,31.38
